Time;durP1;ratioP1;P1;durP2;ratioP2;P2;SDS_P1;SDS_P2;PMS_P1;PMS_P2;Temp;Humidity;BMP_temperature;BMP_pressure;BME280_temperature;BME280_humidity;BME280_pressure;Samples;Min_cycle;Max_cycle;Signal;HPM_P1;HPM_P2
2022/02/21 00:00:31;;;;;;;1.60;1.15;;;11.00;99.90;;;;;;5116281;28;20208;-68
2022/02/21 00:02:58;;;;;;;2.45;1.10;;;11.00;99.90;;;;;;5116435;28;20225;-68
2022/02/21 00:05:25;;;;;;;2.50;1.25;;;11.10;99.90;;;;;;5116433;28;20197;-68
2022/02/21 00:07:52;;;;;;;1.27;1.00;;;11.10;99.90;;;;;;5116395;28;20228;-68
2022/02/21 00:10:20;;;;;;;2.40;1.10;;;11.10;99.90;;;;;;5116092;28;20757;-68
2022/02/21 00:12:47;;;;;;;1.20;1.10;;;11.10;99.90;;;;;;5116258;28;20290;-68
2022/02/21 00:15:17;;;;;;;1.60;1.05;;;11.10;99.90;;;;;;5116130;28;20209;-68
2022/02/21 00:17:45;;;;;;;1.10;1.00;;;11.10;99.90;;;;;;5115976;28;20226;-68
2022/02/21 00:20:12;;;;;;;0.82;0.80;;;11.10;99.90;;;;;;5115831;28;20567;-68
2022/02/21 00:22:39;;;;;;;0.88;0.88;;;11.10;99.90;;;;;;5115972;28;20244;-68
2022/02/21 00:25:06;;;;;;;2.25;1.00;;;11.10;99.90;;;;;;5116046;28;20671;-68
2022/02/21 00:27:34;;;;;;;1.02;1.02;;;11.20;99.90;;;;;;5115885;28;20316;-68
2022/02/21 00:30:01;;;;;;;1.20;1.10;;;11.20;99.90;;;;;;5115738;28;20632;-68
2022/02/21 00:32:28;;;;;;;0.77;0.70;;;11.20;99.90;;;;;;5116139;27;20203;-68
2022/02/21 00:34:55;;;;;;;1.13;0.90;;;11.20;99.90;;;;;;5115923;28;20233;-68
2022/02/21 00:37:22;;;;;;;0.85;0.85;;;11.30;99.90;;;;;;5115756;28;20264;-68
2022/02/21 00:39:49;;;;;;;1.75;1.33;;;11.20;99.90;;;;;;5115199;28;20209;-68
2022/02/21 00:42:16;;;;;;;1.67;1.00;;;11.20;99.90;;;;;;5114917;28;20256;-68
2022/02/21 00:44:44;;;;;;;2.45;1.20;;;11.20;99.90;;;;;;5115397;28;20205;-68
2022/02/21 00:47:11;;;;;;;1.45;1.35;;;11.10;99.90;;;;;;5115772;28;20252;-68
2022/02/21 00:49:38;;;;;;;4.47;1.30;;;11.20;99.90;;;;;;5115345;28;20284;-68
2022/02/21 00:52:05;;;;;;;2.88;1.30;;;11.10;99.90;;;;;;5115406;28;20655;-68
2022/02/21 00:54:32;;;;;;;2.58;1.80;;;11.20;99.90;;;;;;5115249;28;20201;-68
2022/02/21 00:56:59;;;;;;;2.53;1.75;;;11.10;99.90;;;;;;5115289;28;20221;-68
2022/02/21 00:59:26;;;;;;;1.38;1.00;;;11.10;99.90;;;;;;5115303;28;20225;-68
2022/02/21 01:01:54;;;;;;;2.08;1.30;;;11.00;99.90;;;;;;5115023;28;20308;-68
2022/02/21 01:04:21;;;;;;;2.55;1.83;;;10.90;99.90;;;;;;5115024;28;20206;-68
2022/02/21 01:06:48;;;;;;;2.05;1.10;;;10.90;99.90;;;;;;5115036;28;20651;-68
2022/02/21 01:09:14;;;;;;;1.50;1.20;;;10.90;99.90;;;;;;5115080;28;20296;-68
2022/02/21 01:11:41;;;;;;;4.05;1.30;;;10.90;99.90;;;;;;5114945;28;20288;-68
2022/02/21 01:14:08;;;;;;;2.45;1.00;;;10.90;99.90;;;;;;5115159;28;20651;-68
2022/02/21 01:16:35;;;;;;;3.70;1.23;;;10.90;99.90;;;;;;5115017;28;20772;-68
2022/02/21 01:19:04;;;;;;;3.90;1.20;;;10.90;99.90;;;;;;5114923;28;20292;-68
2022/02/21 01:21:31;;;;;;;1.90;1.20;;;10.80;99.90;;;;;;5114265;28;20292;-68
2022/02/21 01:23:58;;;;;;;1.05;0.95;;;10.80;99.90;;;;;;5114643;28;20205;-68
2022/02/21 01:26:25;;;;;;;1.20;0.80;;;10.70;99.90;;;;;;5114703;28;20229;-68
2022/02/21 01:28:52;;;;;;;1.40;1.00;;;10.70;99.90;;;;;;5114796;28;20292;-68
2022/02/21 01:31:19;;;;;;;2.05;0.90;;;10.70;99.90;;;;;;5114570;28;20205;-68
2022/02/21 01:33:46;;;;;;;0.82;0.82;;;10.70;99.90;;;;;;5114597;28;20193;-68
2022/02/21 01:36:14;;;;;;;1.00;0.98;;;10.60;99.90;;;;;;5114590;28;20586;-68
2022/02/21 01:38:41;;;;;;;1.50;1.15;;;10.60;99.90;;;;;;5114296;28;20208;-68
2022/02/21 01:41:08;;;;;;;1.48;0.93;;;10.60;99.90;;;;;;5114183;28;20679;-67
2022/02/21 01:43:35;;;;;;;2.85;0.98;;;10.60;99.90;;;;;;5114398;28;20225;-68
2022/02/21 01:46:02;;;;;;;2.13;1.40;;;10.60;99.90;;;;;;5114448;28;20688;-68
2022/02/21 01:48:28;;;;;;;1.88;1.05;;;10.60;99.90;;;;;;5114111;28;20291;-68
2022/02/21 01:50:55;;;;;;;2.70;1.25;;;10.60;99.90;;;;;;5114166;28;20211;-68
2022/02/21 01:53:24;;;;;;;1.40;0.90;;;10.60;99.90;;;;;;5115120;28;20223;-68
2022/02/21 01:55:52;;;;;;;1.58;1.10;;;10.60;99.90;;;;;;5114305;28;20212;-68
2022/02/21 01:58:19;;;;;;;2.03;1.30;;;10.70;99.90;;;;;;5114427;28;20197;-68
2022/02/21 02:00:46;;;;;;;4.85;1.10;;;10.70;99.90;;;;;;5114391;28;20204;-68
2022/02/21 02:03:15;;;;;;;1.77;1.15;;;10.70;99.90;;;;;;5114210;28;20216;-68
2022/02/21 02:05:41;;;;;;;2.50;0.63;;;10.70;99.90;;;;;;5114316;28;20533;-68
2022/02/21 02:08:08;;;;;;;2.20;1.73;;;10.70;99.90;;;;;;5113772;28;20217;-68
2022/02/21 02:10:38;;;;;;;1.92;1.00;;;10.70;99.90;;;;;;5114266;28;20205;-68
2022/02/21 02:13:04;;;;;;;3.08;0.90;;;10.70;99.90;;;;;;5114224;28;20197;-68
2022/02/21 02:15:31;;;;;;;0.88;0.80;;;10.70;99.90;;;;;;5114153;28;20295;-68
2022/02/21 02:17:58;;;;;;;1.45;1.00;;;10.70;99.90;;;;;;5113973;28;20229;-68
2022/02/21 02:20:25;;;;;;;1.30;0.80;;;10.70;99.90;;;;;;5113976;28;20205;-68
2022/02/21 02:22:53;;;;;;;0.73;0.70;;;10.70;99.90;;;;;;5114271;28;20227;-68
2022/02/21 02:25:20;;;;;;;0.90;0.70;;;10.70;99.90;;;;;;5113859;28;20577;-68
2022/02/21 02:27:47;;;;;;;2.35;0.90;;;10.70;99.90;;;;;;5113665;28;20236;-68
2022/02/21 02:30:14;;;;;;;0.73;0.73;;;10.60;99.90;;;;;;5113731;28;20201;-68
2022/02/21 02:32:40;;;;;;;0.98;0.88;;;10.70;99.90;;;;;;5113592;28;20199;-68
2022/02/21 02:35:08;;;;;;;0.75;0.65;;;10.60;99.90;;;;;;5113857;28;20272;-68
2022/02/21 02:37:35;;;;;;;1.92;1.00;;;10.60;99.90;;;;;;5113863;28;20221;-68
2022/02/21 02:40:04;;;;;;;2.00;0.80;;;10.60;99.90;;;;;;5113598;28;20667;-68
2022/02/21 02:42:31;;;;;;;1.17;0.77;;;10.60;99.90;;;;;;5113711;28;20217;-68
2022/02/21 02:44:58;;;;;;;1.00;0.80;;;10.50;99.90;;;;;;5113679;28;20292;-68
2022/02/21 02:47:25;;;;;;;2.13;0.85;;;10.50;99.90;;;;;;5113416;28;20225;-67
2022/02/21 02:49:52;;;;;;;1.10;0.90;;;10.40;99.90;;;;;;5113289;28;20205;-67
2022/02/21 02:52:19;;;;;;;2.20;1.00;;;10.30;99.90;;;;;;5113540;28;20663;-67
2022/02/21 02:54:46;;;;;;;4.38;1.10;;;10.30;99.90;;;;;;5113444;28;20293;-67
2022/02/21 02:57:14;;;;;;;3.00;0.90;;;10.20;99.90;;;;;;5113397;28;20217;-67
2022/02/21 02:59:41;;;;;;;2.25;0.75;;;10.10;99.90;;;;;;5113456;28;20225;-67
2022/02/21 03:02:08;;;;;;;1.67;1.25;;;10.20;99.90;;;;;;5113520;28;20208;-67
2022/02/21 03:04:34;;;;;;;0.77;0.57;;;10.20;99.90;;;;;;5115695;28;20197;-67
2022/02/21 03:07:01;;;;;;;1.45;0.80;;;10.20;99.90;;;;;;5117245;28;20225;-67
2022/02/21 03:09:29;;;;;;;1.90;1.02;;;10.20;99.90;;;;;;5117134;28;20205;-67
2022/02/21 03:11:56;;;;;;;0.80;0.68;;;10.30;99.90;;;;;;5117179;28;20204;-68
2022/02/21 03:14:25;;;;;;;1.10;0.80;;;10.30;99.90;;;;;;5117819;28;20208;-67
2022/02/21 03:16:52;;;;;;;0.80;0.80;;;10.40;99.90;;;;;;5117752;28;20226;-68
2022/02/21 03:19:20;;;;;;;1.40;0.95;;;10.40;99.90;;;;;;5117212;28;20201;-67
2022/02/21 03:21:47;;;;;;;1.48;0.80;;;10.50;99.90;;;;;;5117088;28;20205;-68
2022/02/21 03:24:14;;;;;;;0.98;0.80;;;10.50;99.90;;;;;;5117010;28;20227;-68
2022/02/21 03:26:41;;;;;;;0.80;0.70;;;10.50;99.90;;;;;;5116796;28;20228;-67
2022/02/21 03:29:08;;;;;;;0.70;0.60;;;10.50;99.90;;;;;;5116798;28;20677;-67
2022/02/21 03:31:36;;;;;;;0.82;0.80;;;10.50;99.90;;;;;;5116892;28;20198;-67
2022/02/21 03:34:03;;;;;;;1.40;0.80;;;10.50;99.90;;;;;;5116735;28;20225;-67
2022/02/21 03:36:30;;;;;;;1.60;0.70;;;10.60;99.90;;;;;;5116768;28;20221;-68
2022/02/21 03:38:57;;;;;;;1.00;0.90;;;10.60;99.90;;;;;;5116851;28;20288;-67
2022/02/21 03:41:23;;;;;;;1.13;0.80;;;10.60;99.90;;;;;;5116434;28;20212;-67
2022/02/21 03:43:50;;;;;;;0.47;0.47;;;10.50;99.90;;;;;;5116766;28;20733;-67
2022/02/21 03:46:17;;;;;;;0.40;0.30;;;9.30;99.90;;;;;;5116728;28;20564;-67
2022/02/21 03:48:45;;;;;;;1.73;0.60;;;7.30;99.90;;;;;;5116897;28;20207;-67
2022/02/21 03:51:12;;;;;;;0.60;0.50;;;6.30;99.90;;;;;;5116424;28;20198;-67
2022/02/21 03:53:39;;;;;;;1.08;0.70;;;5.50;99.90;;;;;;5116659;28;20197;-67
2022/02/21 03:56:06;;;;;;;0.50;0.45;;;5.30;99.90;;;;;;5116669;28;20729;-67
2022/02/21 03:58:33;;;;;;;2.65;0.80;;;5.20;99.90;;;;;;5116423;28;20244;-67
2022/02/21 04:00:59;;;;;;;0.75;0.52;;;5.20;99.90;;;;;;5116512;28;20201;-67
2022/02/21 04:03:26;;;;;;;1.15;0.50;;;5.00;99.90;;;;;;5116488;28;20583;-68
2022/02/21 04:05:54;;;;;;;1.30;0.70;;;4.90;99.90;;;;;;5116495;28;20197;-67
2022/02/21 04:08:21;;;;;;;1.67;0.47;;;4.90;99.90;;;;;;5116249;28;20205;-67
2022/02/21 04:10:48;;;;;;;0.40;0.40;;;5.00;99.90;;;;;;5116052;28;20292;-67
2022/02/21 04:13:15;;;;;;;0.95;0.75;;;5.10;99.90;;;;;;5116285;28;20221;-68
2022/02/21 04:15:42;;;;;;;1.20;0.60;;;5.00;99.90;;;;;;5115117;28;20201;-67
2022/02/21 04:18:08;;;;;;;0.60;0.57;;;5.10;99.90;;;;;;5115778;28;20725;-67
2022/02/21 04:20:35;;;;;;;0.95;0.30;;;5.00;99.90;;;;;;5115747;28;20292;-67
2022/02/21 04:23:03;;;;;;;1.25;0.30;;;5.00;99.90;;;;;;5115843;28;20690;-67
2022/02/21 04:25:30;;;;;;;1.30;0.73;;;5.00;99.90;;;;;;5115981;28;20572;-67
2022/02/21 04:27:57;;;;;;;1.02;0.55;;;5.00;99.90;;;;;;5115629;28;20229;-67
2022/02/21 04:30:26;;;;;;;1.95;0.63;;;5.00;99.90;;;;;;5115585;28;20228;-67
2022/02/21 04:32:54;;;;;;;2.65;1.00;;;5.00;99.90;;;;;;5115799;28;20280;-66
2022/02/21 04:35:23;;;;;;;1.13;0.70;;;5.00;99.90;;;;;;5115622;28;20198;-67
2022/02/21 04:37:50;;;;;;;1.08;0.70;;;5.10;99.90;;;;;;5115490;28;20232;-67
2022/02/21 04:40:22;;;;;;;1.30;0.60;;;5.10;99.90;;;;;;5115471;28;20258;-67
2022/02/21 04:42:50;;;;;;;1.80;0.88;;;5.10;99.90;;;;;;5115632;28;20231;-67
2022/02/21 04:45:18;;;;;;;1.63;1.10;;;5.10;99.90;;;;;;5115414;28;20295;-67
2022/02/21 04:47:44;;;;;;;1.83;1.00;;;5.20;99.90;;;;;;5115374;28;20222;-67
2022/02/21 04:50:11;;;;;;;6.43;2.95;;;5.20;99.90;;;;;;5115014;28;20571;-67
2022/02/21 04:52:40;;;;;;;4.43;1.20;;;5.20;99.90;;;;;;5115275;28;20664;-67
2022/02/21 04:55:09;;;;;;;2.17;0.90;;;5.30;99.90;;;;;;5115437;28;20644;-67
2022/02/21 04:57:38;;;;;;;1.13;0.90;;;5.30;99.90;;;;;;5115365;28;20226;-67
2022/02/21 05:00:06;;;;;;;2.25;0.98;;;5.30;99.90;;;;;;5115427;28;20202;-67
2022/02/21 05:02:33;;;;;;;2.08;0.80;;;5.40;99.90;;;;;;5115552;28;20297;-67
2022/02/21 05:05:00;;;;;;;2.45;1.10;;;5.40;99.90;;;;;;5115689;28;20201;-67
2022/02/21 05:07:27;;;;;;;1.27;0.95;;;5.40;99.90;;;;;;5115479;28;20221;-67
2022/02/21 05:09:54;;;;;;;3.55;1.20;;;5.50;99.90;;;;;;5115210;28;20198;-67
2022/02/21 05:12:21;;;;;;;5.03;1.23;;;5.50;99.90;;;;;;5115552;28;20292;-67
2022/02/21 05:14:49;;;;;;;1.60;1.10;;;5.60;99.90;;;;;;5115102;28;20532;-67
2022/02/21 05:17:16;;;;;;;5.78;1.58;;;5.60;99.90;;;;;;5114945;28;20312;-67
2022/02/21 05:19:42;;;;;;;4.75;1.83;;;5.70;99.90;;;;;;5114528;28;20208;-67
2022/02/21 05:22:09;;;;;;;2.45;1.40;;;5.70;99.90;;;;;;5114722;28;20203;-67
2022/02/21 05:24:36;;;;;;;2.28;1.00;;;5.80;99.90;;;;;;5114686;28;20231;-67
2022/02/21 05:27:03;;;;;;;2.42;1.30;;;5.80;99.90;;;;;;5114093;28;20316;-67
2022/02/21 05:29:30;;;;;;;1.33;1.02;;;5.80;99.90;;;;;;5115005;28;20224;-67
2022/02/21 05:31:58;;;;;;;2.30;1.45;;;5.80;99.90;;;;;;5114874;28;20232;-67
2022/02/21 05:34:25;;;;;;;3.17;1.17;;;5.90;99.90;;;;;;5115168;28;20289;-67
2022/02/21 05:36:51;;;;;;;3.65;1.35;;;5.90;99.90;;;;;;5114759;28;20251;-67
2022/02/21 05:39:18;;;;;;;3.72;1.88;;;5.90;99.90;;;;;;5114961;28;20201;-67
2022/02/21 05:41:45;;;;;;;4.07;1.80;;;6.00;99.90;;;;;;5114691;28;20205;-67
2022/02/21 05:44:12;;;;;;;3.75;2.00;;;6.10;99.90;;;;;;5114421;28;20699;-67
2022/02/21 05:46:40;;;;;;;3.15;1.45;;;6.10;99.90;;;;;;5114450;28;20231;-67
2022/02/21 05:49:09;;;;;;;5.13;1.50;;;6.20;99.90;;;;;;5114367;28;20243;-67
2022/02/21 05:51:35;;;;;;;5.38;1.63;;;6.20;99.90;;;;;;5114124;28;20205;-67
2022/02/21 05:54:02;;;;;;;8.23;2.05;;;6.30;99.90;;;;;;5114441;28;20285;-67
2022/02/21 05:56:29;;;;;;;1.58;1.02;;;6.30;99.90;;;;;;5114260;28;20343;-67
2022/02/21 05:58:56;;;;;;;10.55;2.00;;;6.20;99.90;;;;;;5114478;28;20208;-67
2022/02/21 06:01:23;;;;;;;3.97;1.40;;;6.30;99.90;;;;;;5114460;28;20202;-67
2022/02/21 06:03:50;;;;;;;7.40;2.65;;;6.30;99.90;;;;;;5114647;28;20221;-67
2022/02/21 06:06:18;;;;;;;5.38;2.30;;;6.40;99.90;;;;;;5114397;28;20253;-67
2022/02/21 06:08:45;;;;;;;5.63;1.67;;;6.40;99.90;;;;;;5114163;28;20201;-67
2022/02/21 06:11:12;;;;;;;5.22;1.80;;;6.40;99.90;;;;;;5113937;28;20296;-67
2022/02/21 06:13:38;;;;;;;4.00;1.48;;;6.40;99.90;;;;;;5114223;28;20194;-67
2022/02/21 06:16:06;;;;;;;5.68;1.90;;;6.40;99.90;;;;;;5113977;28;20620;-67
2022/02/21 06:18:33;;;;;;;5.88;2.28;;;6.50;99.90;;;;;;5114338;28;20205;-67
2022/02/21 06:21:00;;;;;;;6.63;1.40;;;6.50;99.90;;;;;;5113757;28;20224;-67
2022/02/21 06:23:28;;;;;;;6.00;1.83;;;6.40;99.90;;;;;;5113897;28;20224;-67
2022/02/21 06:25:55;;;;;;;2.30;1.42;;;6.50;99.90;;;;;;5113782;28;20544;-67
2022/02/21 06:28:24;;;;;;;4.53;1.77;;;6.50;99.90;;;;;;5113822;28;20210;-67
2022/02/21 06:30:51;;;;;;;4.70;1.48;;;6.50;99.90;;;;;;5113845;28;20212;-67
2022/02/21 06:33:18;;;;;;;3.83;1.40;;;6.50;99.90;;;;;;5113848;28;20201;-67
2022/02/21 06:35:45;;;;;;;2.90;1.30;;;6.60;99.90;;;;;;5113795;28;20205;-67
2022/02/21 06:38:12;;;;;;;3.42;1.85;;;6.60;99.90;;;;;;5113907;28;20225;-67
2022/02/21 06:40:40;;;;;;;6.68;1.90;;;6.60;99.90;;;;;;5117546;28;20201;-67
2022/02/21 06:43:07;;;;;;;4.68;2.20;;;6.70;99.90;;;;;;5117884;28;20223;-67
2022/02/21 06:45:34;;;;;;;4.47;1.50;;;6.70;99.90;;;;;;5117999;28;20292;-67
2022/02/21 06:48:01;;;;;;;7.15;1.88;;;6.70;99.90;;;;;;5117813;27;20646;-67
2022/02/21 06:50:28;;;;;;;4.90;1.50;;;6.60;99.90;;;;;;5117506;28;20284;-67
2022/02/21 06:52:55;;;;;;;2.42;1.50;;;6.70;99.90;;;;;;5117725;28;20205;-67
2022/02/21 06:55:22;;;;;;;3.92;1.55;;;6.70;99.90;;;;;;5117631;28;20223;-67
2022/02/21 06:57:51;;;;;;;4.65;1.80;;;6.70;99.90;;;;;;5117646;27;20226;-67
2022/02/21 07:00:19;;;;;;;3.75;1.42;;;6.60;99.90;;;;;;5117179;28;20197;-67
2022/02/21 07:02:46;;;;;;;4.22;1.35;;;6.60;99.90;;;;;;5117531;28;20351;-67
2022/02/21 07:05:13;;;;;;;3.63;1.55;;;6.60;99.90;;;;;;5117271;28;20225;-67
2022/02/21 07:07:40;;;;;;;9.57;1.60;;;6.60;99.90;;;;;;5117390;28;20228;-67
2022/02/21 07:10:08;;;;;;;2.83;1.67;;;6.50;99.90;;;;;;5117165;28;20220;-67
2022/02/21 07:12:35;;;;;;;4.18;1.48;;;6.50;99.90;;;;;;5117356;28;20201;-67
2022/02/21 07:15:04;;;;;;;4.90;1.50;;;6.40;99.90;;;;;;5117145;28;20292;-67
2022/02/21 07:17:37;;;;;;;5.15;2.28;;;6.40;99.90;;;;;;5117312;28;20225;-67
2022/02/21 07:20:04;;;;;;;2.33;1.10;;;6.40;99.90;;;;;;5117055;28;20182;-67
2022/02/21 07:22:31;;;;;;;5.93;1.95;;;6.20;99.90;;;;;;5117212;28;20287;-67
2022/02/21 07:24:58;;;;;;;5.22;1.75;;;6.20;99.90;;;;;;5116814;28;20788;-67
2022/02/21 07:27:25;;;;;;;6.20;2.30;;;6.20;99.90;;;;;;5116714;28;20733;-67
2022/02/21 07:29:52;;;;;;;4.68;1.52;;;6.20;99.90;;;;;;5117058;28;20210;-67
2022/02/21 07:32:20;;;;;;;4.05;1.63;;;6.20;99.90;;;;;;5116955;28;20292;-67
2022/02/21 07:34:47;;;;;;;2.10;1.40;;;6.20;99.90;;;;;;5117345;28;20204;-67
2022/02/21 07:37:14;;;;;;;3.97;2.10;;;6.20;99.90;;;;;;5116865;28;20221;-67
2022/02/21 07:39:40;;;;;;;4.50;1.73;;;6.10;99.90;;;;;;5116612;28;20576;-67
2022/02/21 07:42:08;;;;;;;6.93;1.85;;;6.20;99.90;;;;;;5116773;28;20292;-67
2022/02/21 07:44:35;;;;;;;7.53;1.90;;;6.20;99.90;;;;;;5116653;28;20226;-67
2022/02/21 07:47:02;;;;;;;4.72;2.00;;;6.20;99.90;;;;;;5116739;28;20222;-67
2022/02/21 07:49:30;;;;;;;8.63;1.90;;;6.30;99.90;;;;;;5116494;28;20295;-67
2022/02/21 07:51:57;;;;;;;6.40;1.30;;;6.30;99.90;;;;;;5116428;28;20292;-67
2022/02/21 07:54:25;;;;;;;4.78;2.35;;;6.40;99.70;;;;;;5116509;28;20211;-67
2022/02/21 07:56:52;;;;;;;4.65;1.67;;;6.40;99.90;;;;;;5116298;28;20253;-67
2022/02/21 07:59:19;;;;;;;5.65;2.20;;;6.40;99.70;;;;;;5116164;28;20686;-67
2022/02/21 08:01:45;;;;;;;1.80;1.70;;;6.40;99.20;;;;;;5115925;28;20240;-67
2022/02/21 08:04:12;;;;;;;4.30;2.22;;;6.40;99.30;;;;;;5115998;28;20752;-67
2022/02/21 08:06:40;;;;;;;2.38;1.10;;;6.50;99.40;;;;;;5116431;28;20218;-67
2022/02/21 08:09:07;;;;;;;9.18;2.17;;;6.50;99.70;;;;;;5116264;28;20207;-67
2022/02/21 08:11:35;;;;;;;4.00;1.60;;;6.50;99.30;;;;;;5116045;28;20288;-67
2022/02/21 08:14:03;;;;;;;9.55;2.35;;;6.60;99.50;;;;;;5116058;28;20276;-67
2022/02/21 08:16:30;;;;;;;5.15;1.77;;;6.60;99.50;;;;;;5116036;28;20666;-68
2022/02/21 08:18:57;;;;;;;7.72;2.10;;;6.70;99.50;;;;;;5116024;28;20205;-67
2022/02/21 08:21:24;;;;;;;4.10;1.77;;;6.80;99.80;;;;;;5115756;28;20628;-67
2022/02/21 08:23:52;;;;;;;5.72;1.83;;;6.90;99.30;;;;;;5115759;28;20202;-67
2022/02/21 08:26:19;;;;;;;4.10;1.88;;;6.90;99.20;;;;;;5115826;28;20308;-67
2022/02/21 08:28:46;;;;;;;6.72;1.95;;;7.00;99.00;;;;;;5115466;28;20213;-67
2022/02/21 08:31:13;;;;;;;7.20;2.30;;;7.10;99.80;;;;;;5116391;28;20731;-67
2022/02/21 08:33:40;;;;;;;8.75;1.95;;;7.30;99.00;;;;;;5116968;28;20211;-68
2022/02/21 08:36:07;;;;;;;3.00;1.67;;;7.50;98.50;;;;;;5116849;28;20265;-68
2022/02/21 08:38:33;;;;;;;5.38;1.98;;;7.50;97.90;;;;;;5116396;28;20207;-68
2022/02/21 08:41:02;;;;;;;3.47;1.70;;;7.30;97.70;;;;;;5116587;28;20211;-67
2022/02/21 08:43:28;;;;;;;9.68;2.30;;;7.30;98.20;;;;;;5116738;28;20203;-68
2022/02/21 08:45:55;;;;;;;4.75;1.90;;;7.30;98.40;;;;;;5115898;28;20228;-67
2022/02/21 08:48:23;;;;;;;6.07;2.45;;;7.20;98.00;;;;;;5115218;28;20754;-67
2022/02/21 08:50:50;;;;;;;7.95;1.90;;;7.30;98.10;;;;;;5114987;28;20255;-67
2022/02/21 08:53:17;;;;;;;5.22;1.65;;;7.40;98.00;;;;;;5115419;28;20209;-67
2022/02/21 08:55:44;;;;;;;5.22;1.92;;;7.50;97.60;;;;;;5115822;28;20201;-67
2022/02/21 08:58:12;;;;;;;6.50;1.70;;;7.50;97.50;;;;;;5115274;28;20221;-68
2022/02/21 09:00:41;;;;;;;4.07;2.28;;;7.70;97.40;;;;;;5115042;28;20202;-67
2022/02/21 09:03:08;;;;;;;5.10;1.92;;;7.90;98.10;;;;;;5114692;28;20205;-67
2022/02/21 09:05:35;;;;;;;6.85;3.03;;;8.10;96.90;;;;;;5115115;28;20221;-67
2022/02/21 09:08:02;;;;;;;10.35;2.42;;;8.10;97.30;;;;;;5115085;28;20225;-68
2022/02/21 09:10:30;;;;;;;6.97;2.20;;;8.30;97.40;;;;;;5114829;28;20292;-67
2022/02/21 09:12:57;;;;;;;7.82;2.00;;;8.40;97.10;;;;;;5115083;28;20566;-67
2022/02/21 09:15:26;;;;;;;3.70;2.58;;;8.40;96.00;;;;;;5114731;28;20241;-67
2022/02/21 09:17:53;;;;;;;4.47;1.80;;;8.40;96.20;;;;;;5114873;28;20231;-67
2022/02/21 09:20:20;;;;;;;3.28;1.48;;;8.40;95.70;;;;;;5114609;28;20227;-67
2022/02/21 09:22:47;;;;;;;5.35;1.92;;;8.30;95.60;;;;;;5114741;28;20201;-67
2022/02/21 09:25:14;;;;;;;5.30;2.00;;;8.20;96.00;;;;;;5114687;28;20640;-67
2022/02/21 09:27:41;;;;;;;3.67;1.73;;;8.30;96.40;;;;;;5114596;28;20324;-67
2022/02/21 09:30:10;;;;;;;2.20;1.20;;;8.40;96.20;;;;;;5114264;28;20254;-67
2022/02/21 09:32:38;;;;;;;6.30;2.13;;;8.30;95.70;;;;;;5114736;28;20562;-67
2022/02/21 09:35:06;;;;;;;5.60;1.88;;;8.30;95.90;;;;;;5114635;28;20205;-67
2022/02/21 09:37:35;;;;;;;5.22;1.40;;;8.10;96.20;;;;;;5114425;28;20695;-67
2022/02/21 09:40:03;;;;;;;3.92;1.52;;;8.10;96.70;;;;;;5114041;28;20690;-67
2022/02/21 09:42:31;;;;;;;4.07;1.60;;;8.20;97.00;;;;;;5114278;28;20297;-67
2022/02/21 09:44:58;;;;;;;8.02;1.95;;;8.10;96.00;;;;;;5114335;28;20228;-67
2022/02/21 09:47:26;;;;;;;5.38;1.65;;;8.00;96.80;;;;;;5114135;28;20217;-67
2022/02/21 09:49:55;;;;;;;3.60;1.70;;;8.00;96.80;;;;;;5114221;28;20201;-67
2022/02/21 09:52:22;;;;;;;4.18;1.60;;;8.00;95.60;;;;;;5114384;28;20296;-67
2022/02/21 09:54:49;;;;;;;6.50;1.60;;;7.90;96.10;;;;;;5114263;28;20199;-67
2022/02/21 09:57:16;;;;;;;5.10;1.33;;;8.10;96.50;;;;;;5114513;28;20312;-67
2022/02/21 09:59:43;;;;;;;3.55;1.40;;;8.00;95.50;;;;;;5114098;28;20201;-67
2022/02/21 10:02:15;;;;;;;4.22;2.20;;;8.00;94.90;;;;;;5114139;28;20292;-67
2022/02/21 10:04:42;;;;;;;4.88;1.40;;;8.10;94.50;;;;;;5114093;28;20311;-68
2022/02/21 10:07:11;;;;;;;5.00;1.70;;;8.20;94.50;;;;;;5113835;28;20229;-67
2022/02/21 10:09:40;;;;;;;3.97;1.65;;;8.30;94.10;;;;;;5113928;28;20770;-67
2022/02/21 10:12:07;;;;;;;6.28;1.50;;;8.50;93.40;;;;;;5114381;28;20205;-67
2022/02/21 10:14:36;;;;;;;3.90;1.50;;;8.50;93.40;;;;;;5113101;28;20197;-67
2022/02/21 10:17:04;;;;;;;1.95;1.48;;;8.50;93.70;;;;;;5113770;28;20698;-67
2022/02/21 10:19:36;;;;;;;4.38;1.50;;;8.50;93.00;;;;;;5114041;28;20233;-67
2022/02/21 10:22:06;;;;;;;5.22;1.77;;;8.50;93.40;;;;;;5113735;28;20245;-67
2022/02/21 10:24:42;;;;;;;6.32;2.03;;;8.50;93.50;;;;;;5113874;28;20240;-67
2022/02/21 10:27:11;;;;;;;3.72;1.63;;;8.60;93.20;;;;;;5113676;28;20255;-67
2022/02/21 10:29:48;;;;;;;4.20;2.17;;;8.70;92.70;;;;;;5113877;28;20201;-67
2022/02/21 10:32:16;;;;;;;3.78;1.10;;;8.70;93.70;;;;;;5113778;28;20197;-67
2022/02/21 10:34:45;;;;;;;3.72;1.90;;;8.80;93.20;;;;;;5113957;28;20205;-67
2022/02/21 10:37:13;;;;;;;3.58;1.40;;;8.90;92.50;;;;;;5113555;28;20231;-68
2022/02/21 10:39:41;;;;;;;4.18;1.08;;;8.80;91.30;;;;;;5113782;28;20198;-67
2022/02/21 10:42:09;;;;;;;4.10;1.30;;;8.70;91.50;;;;;;5113713;28;20663;-67
2022/02/21 10:44:38;;;;;;;2.60;1.70;;;8.80;91.80;;;;;;5113850;28;20288;-67
2022/02/21 10:47:11;;;;;;;3.20;1.50;;;8.90;91.10;;;;;;5113763;28;20221;-67
2022/02/21 10:49:44;;;;;;;5.57;1.55;;;9.00;91.10;;;;;;5113768;28;20205;-67
2022/02/21 10:52:14;;;;;;;2.78;1.02;;;9.20;90.60;;;;;;5113527;28;20202;-67
2022/02/21 10:54:42;;;;;;;3.97;1.85;;;9.30;90.40;;;;;;5113750;28;20608;-68
2022/02/21 10:57:10;;;;;;;5.32;1.60;;;9.30;90.50;;;;;;5114096;28;20312;-67
2022/02/21 10:59:37;;;;;;;4.45;1.92;;;9.40;90.20;;;;;;5113624;28;20197;-67
2022/02/21 11:02:06;;;;;;;2.78;1.30;;;9.40;89.50;;;;;;5113612;28;20293;-67
2022/02/21 11:04:33;;;;;;;4.00;1.60;;;9.60;86.40;;;;;;5113506;28;20270;-67
2022/02/21 11:07:01;;;;;;;2.90;1.60;;;9.60;84.90;;;;;;5113318;28;20710;-68
2022/02/21 11:09:29;;;;;;;3.50;1.50;;;9.70;83.90;;;;;;5113561;28;20558;-67
2022/02/21 11:12:00;;;;;;;3.35;1.38;;;9.60;82.20;;;;;;5113380;28;20551;-67
2022/02/21 11:14:28;;;;;;;2.53;1.27;;;9.80;82.00;;;;;;5113583;28;20566;-67
2022/02/21 11:16:57;;;;;;;2.42;1.30;;;10.00;81.20;;;;;;5113519;28;20314;-67
2022/02/21 11:19:24;;;;;;;4.88;1.60;;;10.00;79.80;;;;;;5113485;28;20198;-67
2022/02/21 11:21:51;;;;;;;5.50;1.42;;;10.10;79.70;;;;;;5113356;28;20240;-68
2022/02/21 11:24:21;;;;;;;3.90;1.85;;;9.90;80.70;;;;;;5113603;28;20207;-67
2022/02/21 11:27:02;;;;;;;3.17;1.40;;;9.30;82.20;;;;;;5116837;28;20229;-67
2022/02/21 11:29:41;;;;;;;2.13;1.05;;;9.00;85.20;;;;;;5116818;28;20662;-67
2022/02/21 11:32:16;;;;;;;2.85;1.25;;;9.00;86.50;;;;;;5116916;28;20203;-67
2022/02/21 11:34:46;;;;;;;2.72;1.33;;;9.00;89.00;;;;;;5116960;28;20204;-67
2022/02/21 11:37:22;;;;;;;2.40;1.30;;;9.00;89.90;;;;;;5116936;28;20272;-67
2022/02/21 11:39:57;;;;;;;5.38;1.92;;;9.10;90.70;;;;;;5116807;28;20208;-67
2022/02/21 11:42:29;;;;;;;3.92;1.40;;;9.10;92.40;;;;;;5116752;28;20208;-67
2022/02/21 11:44:58;;;;;;;3.45;1.38;;;8.90;94.50;;;;;;5116688;28;20201;-67
2022/02/21 11:47:39;;;;;;;1.17;0.88;;;8.20;97.10;;;;;;5116705;28;20228;-67
2022/02/21 11:50:20;;;;;;;5.43;1.70;;;7.90;99.90;;;;;;5116507;28;20628;-67
2022/02/21 11:52:49;;;;;;;2.28;1.40;;;8.00;99.90;;;;;;5116703;27;20205;-67
2022/02/21 11:55:43;;;;;;;4.35;1.35;;;8.20;99.90;;;;;;5116531;28;20197;-67
2022/02/21 11:58:37;;;;;;;3.90;1.42;;;8.40;99.90;;;;;;5116579;28;20264;-67
2022/02/21 12:01:25;;;;;;;3.40;1.27;;;8.50;97.60;;;;;;5116264;28;20201;-67
2022/02/21 12:04:15;;;;;;;3.72;1.50;;;8.80;94.20;;;;;;5109927;28;20212;-68
2022/02/21 12:06:52;;;;;;;3.75;1.50;;;8.90;94.60;;;;;;5116122;28;20256;-67
2022/02/21 12:09:19;;;;;;;5.95;1.38;;;9.20;94.30;;;;;;5116097;28;20186;-67
2022/02/21 12:11:46;;;;;;;3.00;1.30;;;9.30;93.10;;;;;;5115757;28;20213;-67
2022/02/21 12:14:22;;;;;;;4.18;1.35;;;9.30;91.60;;;;;;5116199;28;20287;-67
2022/02/21 12:17:07;;;;;;;3.65;1.08;;;9.40;90.70;;;;;;5116506;28;20300;-67
2022/02/21 12:19:38;;;;;;;3.20;1.40;;;9.30;90.50;;;;;;5116184;28;20197;-67
2022/02/21 12:22:18;;;;;;;4.22;1.20;;;9.30;89.10;;;;;;5116223;28;20564;-67
2022/02/21 12:25:11;;;;;;;5.85;1.60;;;9.40;88.60;;;;;;5116073;28;20670;-68
2022/02/21 12:27:59;;;;;;;2.28;1.35;;;9.60;87.90;;;;;;5115700;28;20237;-68
2022/02/21 12:30:38;;;;;;;2.80;1.60;;;9.80;86.00;;;;;;5115688;28;20223;-67
2022/02/21 12:33:06;;;;;;;2.97;1.20;;;9.70;82.40;;;;;;5115871;28;20296;-67
2022/02/21 12:35:52;;;;;;;2.17;1.30;;;9.60;81.00;;;;;;5115614;28;20558;-67
2022/02/21 12:38:20;;;;;;;1.95;1.25;;;9.40;80.00;;;;;;5115237;28;20662;-67
2022/02/21 12:40:59;;;;;;;2.95;1.10;;;9.20;80.10;;;;;;5115355;28;20201;-68
2022/02/21 12:43:41;;;;;;;1.70;1.20;;;9.20;79.70;;;;;;5115471;28;20654;-67
2022/02/21 12:46:09;;;;;;;6.00;1.38;;;9.20;80.00;;;;;;5115211;28;20225;-67
2022/02/21 12:48:36;;;;;;;4.60;1.75;;;9.10;80.00;;;;;;5115584;28;20563;-68
2022/02/21 12:51:03;;;;;;;7.32;3.72;;;9.10;80.30;;;;;;5115150;28;20197;-68
2022/02/21 12:53:30;;;;;;;4.15;2.40;;;9.10;81.00;;;;;;5115401;28;20201;-68
2022/02/21 12:55:59;;;;;;;2.13;1.23;;;9.10;81.20;;;;;;5115101;28;20239;-68
2022/02/21 12:58:36;;;;;;;4.13;1.27;;;9.10;80.80;;;;;;5115354;28;20201;-68